Terminal Aerodrome Forecast
Issued by NWS

Home | Current Version | Previous Version | Text Only | Print | Product List | Glossary On
Versions: 1 2 3 4 5 6 7 8 9 10 11 12 13 14 15 16 17
000
FTUS46 KSEW 261700
TAFPAE
TAF
KPAE 261720Z 2618/2718 18005KT P6SM FEW035 SCT150 BKN200
     FM262100 20004KT P6SM SCT150 BKN200
     FM270300 VRB04KT P6SM BKN200
     FM271200 18004KT P6SM BKN010 BKN200=

USA.gov is the U.S. government's official web portal to all federal, state and local government web resources and services.